No.11 Kin Yu Maru — JD3371 — position and weather

sailwx.info

Track history (hours):
 
Tides and Currents Weather Stations Pressure Air Temp Water Temp Dewpoint Dewpoint Depression Visibility Wind Speed Wind Dir Waves Ship Positions

No.11 Kin Yu Maru

Last reported at 2017-Dec-17 23:00 UTC. Time now 2017-Dec-17 23:21 UTC.
Position N 33°51' E 131°25'.

Length 80 m; draft 5.3 m.

Type: Tanker. MMSI: 431003681.

Date/timePositionNaut miles runAvg speedWind from/ knotsBaromVisibWave heightAir tempDewpointWater temp
2017-Dec-17 23:00N 33°51' E 131°25'612.5
2017-Dec-17 22:30N 33°50' E 131°32'612.7
2017-Dec-17 22:00N 33°49' E 131°40'612.8
2017-Dec-17 21:30N 33°48' E 131°47'812.5
2017-Dec-17 20:52N 33°46' E 131°57'512.3
2017-Dec-17 20:29N 33°46' E 132°02'712.0
2017-Dec-17 19:53N 33°49' E 132°10'411.5
2017-Dec-17 19:30N 33°50' E 132°15'1111.8
2017-Dec-17 18:35N 33°52' E 132°28'212.3
2017-Dec-17 18:24N 33°52' E 132°31'512.8
2017-Dec-17 17:59N 33°55' E 132°37'613.7
2017-Dec-17 17:30N 33°58' E 132°43'9110.9
2017-Dec-17 09:10N 34°19' E 134°30'211.7
2017-Dec-17 08:59N 34°18' E 134°33'711.9
2017-Dec-17 08:26N 34°14' E 134°39'612.1
2017-Dec-17 07:55N 34°10' E 134°45'511.6
2017-Dec-17 07:30N 34°08' E 134°50'611.8
2017-Dec-17 07:00N 34°08' E 134°57'611.7
2017-Dec-17 06:30N 34°08' E 135°05'3 5.0
2017-Dec-17 06:00N 34°07' E 135°08'0 0.0
2017-Dec-17 00:59N 34°07' E 135°08'1 1.1
2017-Dec-17 00:30N 34°07' E 135°08'0 0.0
2017-Dec-16 23:57N 34°07' E 135°08'0 0.6
2017-Dec-16 23:30N 34°08' E 135°07'511.0
2017-Dec-16 23:00N 34°12' E 135°03'611.7
2017-Dec-16 22:30N 34°17' E 134°59'510.3
2017-Dec-16 22:01N 34°22' E 134°60'611.9
2017-Dec-16 21:30N 34°28' E 135°01'611.4
2017-Dec-16 21:01N 34°33' E 135°02'4 8.6
2017-Dec-16 20:31N 34°37' E 135°00'611.7
2017-Dec-16 20:01N 34°35' E 134°54'612.5
2017-Dec-16 19:30N 34°32' E 134°47'612.7
2017-Dec-16 19:00N 34°30' E 134°40'713.0
2017-Dec-16 18:30N 34°28' E 134°32'1712.8
2017-Dec-16 17:12N 34°24' E 134°12'7512.4
2017-Dec-16 11:09N 34°01' E 132°46'213.8
2017-Dec-16 11:00N 33°59' E 132°45'714.0
2017-Dec-16 10:29N 33°54' E 132°38'4012.6
2017-Dec-16 07:20N 33°44' E 131°52'413.1
2017-Dec-16 07:00N 33°45' E 131°47'713.1
2017-Dec-16 06:30N 33°46' E 131°39'613.0
2017-Dec-16 06:00N 33°47' E 131°32'713.4
2017-Dec-16 05:30N 33°49' E 131°24'713.5
2017-Dec-16 05:00N 33°50' E 131°16'713.7
2017-Dec-16 04:31N 33°53' E 131°08'713.7
2017-Dec-16 04:00N 33°58' E 131°02'611.1
2017-Dec-16 03:30N 33°55' E 130°56'2 4.4
2017-Dec-16 02:56N 33°54' E 130°54'0 0.0
2017-Dec-16 02:29N 33°54' E 130°54'0 0.0
2017-Dec-16 02:00N 33°54' E 130°54'0 0.0
2017-Dec-16 01:29N 33°54' E 130°54'0 0.0
2017-Dec-16 00:59N 33°54' E 130°54'0 0.0
2017-Dec-16 00:29N 33°54' E 130°54'0 0.0
2017-Dec-15 23:59N 33°54' E 130°54'0 0.0
2017-Dec-15 23:29N 33°54' E 130°54'1 1.7
2017-Dec-15 23:00N 33°54' E 130°54'1 1.5
2017-Dec-15 22:25N 33°54' E 130°53'0 0.0
2017-Dec-15 21:58N 33°54' E 130°53'0 0.0
2017-Dec-15 21:28N 33°54' E 130°53'0 0.0
2017-Dec-15 20:58N 33°54' E 130°53'0 0.0
2017-Dec-15 20:28N 33°54' E 130°53'0 0.0
2017-Dec-15 19:52N 33°54' E 130°53'0 0.0
2017-Dec-15 19:28N 33°54' E 130°53'0 0.0
2017-Dec-15 18:58N 33°54' E 130°53'0 0.0
2017-Dec-15 18:28N 33°54' E 130°53'0 0.0
2017-Dec-15 17:58N 33°54' E 130°53'0 0.0
2017-Dec-15 17:28N 33°54' E 130°53'0 0.0
2017-Dec-15 16:55N 33°54' E 130°53'0 0.0
2017-Dec-15 16:28N 33°54' E 130°53'0 0.0
2017-Dec-15 15:58N 33°54' E 130°53'0 0.0
2017-Dec-15 15:25N 33°54' E 130°53'0 0.0
2017-Dec-15 14:55N 33°54' E 130°53'0 0.0
2017-Dec-15 14:28N 33°54' E 130°53'0 0.0
2017-Dec-15 13:58N 33°54' E 130°53'0 0.0
2017-Dec-15 13:28N 33°54' E 130°53'0 0.0
2017-Dec-15 12:58N 33°54' E 130°53'0 0.0
2017-Dec-15 12:28N 33°54' E 130°53'0 0.0
2017-Dec-15 11:52N 33°54' E 130°53'0 0.0
2017-Dec-15 11:28N 33°54' E 130°53'0 0.0
2017-Dec-15 10:58N 33°54' E 130°53'0 0.0
2017-Dec-15 10:28N 33°54' E 130°53'0 0.0
2017-Dec-15 09:55N 33°54' E 130°53'0 0.0
2017-Dec-15 09:28N 33°54' E 130°53'0 0.0
2017-Dec-15 08:58N 33°54' E 130°53'0 0.0
2017-Dec-15 08:30N 33°54' E 130°53'2 4.9
2017-Dec-15 08:01N 33°55' E 130°56'611.1
2017-Dec-15 07:30N 33°59' E 131°00'612.1
2017-Dec-15 07:00N 33°56' E 131°06'612.5
2017-Dec-15 06:30N 33°52' E 131°12'612.1
2017-Dec-15 06:00N 33°50' E 131°19'611.7
2017-Dec-15 05:30N 33°49' E 131°26'611.7
2017-Dec-15 05:00N 33°48' E 131°33'611.4
2017-Dec-15 04:30N 33°47' E 131°40'611.3
2017-Dec-15 04:00N 33°45' E 131°47'2011.6
2017-Dec-15 02:15N 33°42' E 132°11'2012.8
2017-Dec-15 00:42N 33°50' E 132°33'312.6
2017-Dec-15 00:30N 33°52' E 132°35'10110.7
2017-Dec-14 15:00N 34°28' E 134°29'611.9
2017-Dec-14 14:30N 34°30' E 134°36'611.7
2017-Dec-14 14:00N 34°32' E 134°43'611.5
2017-Dec-14 13:30N 34°34' E 134°49'510.9
2017-Dec-14 13:00N 34°36' E 134°55'510.7
2017-Dec-14 12:30N 34°37' E 135°02'510.1
2017-Dec-14 12:00N 34°33' E 135°05'611.9
2017-Dec-14 11:30N 34°27' E 135°03'611.9
2017-Dec-14 11:00N 34°21' E 135°02'611.6
2017-Dec-14 10:30N 34°16' E 134°59'611.8
2017-Dec-14 10:00N 34°10' E 135°00'611.7
2017-Dec-14 09:30N 34°04' E 135°01'611.7
2017-Dec-14 09:00N 33°58' E 135°01'164 9.1
2017-Dec-13 15:00N 34°34' E 138°15'810.1
2017-Dec-13 14:11N 34°35' E 138°25'2 9.9
2017-Dec-13 13:58N 34°35' E 138°27'5 9.5
2017-Dec-13 13:26N 34°36' E 138°33'4 9.4
2017-Dec-13 13:00N 34°36' E 138°38'6 9.8
2017-Dec-13 12:22N 34°35' E 138°46'3 8.9
2017-Dec-13 12:00N 34°35' E 138°50'4 9.0
2017-Dec-13 11:30N 34°35' E 138°55'5 9.0
2017-Dec-13 10:55N 34°39' E 139°00'511.3
2017-Dec-13 10:28N 34°43' E 139°04'711.7
2017-Dec-13 09:55N 34°48' E 139°08'511.3
2017-Dec-13 09:26N 34°52' E 139°12'611.4
2017-Dec-13 08:55N 34°56' E 139°17'511.4
2017-Dec-13 08:30N 34°59' E 139°22'611.5
2017-Dec-13 08:00N 35°02' E 139°28'711.9
2017-Dec-13 07:24N 35°05' E 139°36'512.2
2017-Dec-13 06:57N 35°08' E 139°42'612.3
2017-Dec-13 06:29N 35°12' E 139°46'612.2
2017-Dec-13 06:01N 35°18' E 139°44'611.9
2017-Dec-13 05:31N 35°24' E 139°43'612.5
2017-Dec-13 05:00N 35°28' E 139°48'3 6.9
2017-Dec-13 04:30N 35°30' E 139°45'0 0.0
2017-Dec-13 03:27N 35°30' E 139°45'0 0.0
2017-Dec-13 03:00N 35°30' E 139°45'0 0.0
2017-Dec-13 02:24N 35°30' E 139°45'0 0.0
2017-Dec-13 01:54N 35°30' E 139°45'0 0.0
2017-Dec-13 01:30N 35°30' E 139°45'0 0.0
2017-Dec-13 01:00N 35°30' E 139°45'0 0.0
2017-Dec-13 00:30N 35°30' E 139°45'2 3.5
2017-Dec-13 00:00N 35°29' E 139°43'3 6.1
2017-Dec-12 23:30N 35°27' E 139°44'2 3.0
2017-Dec-12 23:00N 35°25' E 139°46'4 8.6
2017-Dec-12 22:30N 35°21' E 139°45'510.0
2017-Dec-12 22:00N 35°17' E 139°41'0 0.7
2017-Dec-12 21:29N 35°17' E 139°41'0 0.0
2017-Dec-12 20:59N 35°17' E 139°41'0 0.0
2017-Dec-12 20:26N 35°17' E 139°41'0 0.0
2017-Dec-12 19:59N 35°17' E 139°41'0 0.0
2017-Dec-12 19:29N 35°17' E 139°41'0 0.0
2017-Dec-12 18:53N 35°17' E 139°41'0 0.0
2017-Dec-12 18:29N 35°17' E 139°41'0 0.0
2017-Dec-12 17:53N 35°17' E 139°41'0 0.0
2017-Dec-12 17:29N 35°17' E 139°41'0 0.0
2017-Dec-12 16:56N 35°17' E 139°41'0 0.0
2017-Dec-12 16:29N 35°17' E 139°41'0 0.0
2017-Dec-12 15:59N 35°17' E 139°41'0 0.0
2017-Dec-12 15:29N 35°17' E 139°41'0 0.0
2017-Dec-12 14:56N 35°17' E 139°41'0 0.0
2017-Dec-12 14:14N 35°17' E 139°41'0 0.0
2017-Dec-12 13:59N 35°17' E 139°41'0 0.0
2017-Dec-12 13:26N 35°17' E 139°41'0 0.0
2017-Dec-12 12:59N 35°17' E 139°41'0 0.0
2017-Dec-12 12:26N 35°17' E 139°41'0 0.0
2017-Dec-12 11:59N 35°17' E 139°41'0 0.0
2017-Dec-12 11:29N 35°17' E 139°41'0 0.0
2017-Dec-12 10:56N 35°17' E 139°41'0 0.0
2017-Dec-12 10:29N 35°17' E 139°41'0 0.0
2017-Dec-12 09:56N 35°17' E 139°41'0 0.0
2017-Dec-12 09:29N 35°17' E 139°41'0 0.0
2017-Dec-12 08:59N 35°17' E 139°41'0 0.0
2017-Dec-12 08:27N 35°17' E 139°41'0 0.0
2017-Dec-12 07:59N 35°17' E 139°41'0 0.0
2017-Dec-12 07:23N 35°17' E 139°41'0 0.0
2017-Dec-12 06:56N 35°17' E 139°41'0 0.0
2017-Dec-12 06:29N 35°17' E 139°41'0 0.0
2017-Dec-12 05:56N 35°17' E 139°41'0 0.0
2017-Dec-12 05:26N 35°17' E 139°41'0 0.0
2017-Dec-12 04:47N 35°17' E 139°41'0 0.0
2017-Dec-12 03:56N 35°17' E 139°41'0 0.0
2017-Dec-12 03:26N 35°17' E 139°41'0 0.0
2017-Dec-12 02:56N 35°17' E 139°41'0 0.0
2017-Dec-12 02:29N 35°17' E 139°41'0 0.0
2017-Dec-12 01:35N 35°17' E 139°41'0 0.0
2017-Dec-12 01:20N 35°17' E 139°41'0 0.0
2017-Dec-12 00:59N 35°17' E 139°41'0 0.0
2017-Dec-12 00:20N 35°17' E 139°41'0 0.0
2017-Dec-11 23:50N 35°17' E 139°41'0 0.0
2017-Dec-11 23:23N 35°17' E 139°41'0 0.0
2017-Dec-11 22:56N 35°17' E 139°41'0 0.4
2017-Dec-11 22:31N 35°17' E 139°41'2 4.8
2017-Dec-11 22:01N 35°19' E 139°42'1 2.5
2017-Dec-11 21:30N 35°21' E 139°42'0 0.8
2017-Dec-11 21:00N 35°20' E 139°42'4 8.1
2017-Dec-11 20:31N 35°17' E 139°45'510.5
2017-Dec-11 20:00N 35°12' E 139°47'511.1
2017-Dec-11 19:30N 35°07' E 139°45'611.3
2017-Dec-11 18:59N 35°02' E 139°42'510.8
2017-Dec-11 18:30N 34°58' E 139°37'1314.3
2017-Dec-11 17:37N 34°52' E 139°24'215.5
2017-Dec-11 17:29N 34°51' E 139°22'714.4
2017-Dec-11 17:00N 34°46' E 139°16'813.9
2017-Dec-11 16:27N 34°42' E 139°08'713.7
2017-Dec-11 15:59N 34°38' E 139°02'613.2
2017-Dec-11 15:30N 34°35' E 138°55'813.4
2017-Dec-11 14:54N 34°34' E 138°45'512.9
2017-Dec-11 14:29N 34°33' E 138°39'2013.2
2017-Dec-11 12:56N 34°32' E 138°14'713.3
2017-Dec-11 12:23N 34°31' E 138°05'3313.2
2017-Dec-11 09:54N 34°30' E 137°25'613.6
2017-Dec-11 09:26N 34°30' E 137°18'27510.8
2017-Dec-10 07:55N 33°24' E 131°56'913.1
2017-Dec-10 07:16N 33°31' E 131°51'313.0
2017-Dec-10 07:00N 33°34' E 131°48'713.3
2017-Dec-10 06:30N 33°39' E 131°44'612.6
2017-Dec-10 06:01N 33°42' E 131°37'611.9
2017-Dec-10 05:30N 33°45' E 131°31'511.0
2017-Dec-10 05:01N 33°46' E 131°24'612.4
2017-Dec-10 04:31N 33°48' E 131°17'612.1
2017-Dec-10 04:00N 33°50' E 131°10'612.0
2017-Dec-10 03:31N 33°55' E 131°05'611.7
2017-Dec-10 03:01N 33°59' E 131°00'611.9
2017-Dec-10 02:30N 33°54' E 130°55'1 2.6
2017-Dec-10 02:00N 33°54' E 130°54'0 0.0
2017-Dec-10 01:30N 33°54' E 130°54'0 0.0
2017-Dec-10 01:00N 33°54' E 130°54'0 0.0
2017-Dec-10 00:28N 33°54' E 130°54'0 0.0
2017-Dec-09 23:58N 33°54' E 130°54'0 0.5
2017-Dec-09 23:30N 33°54' E 130°54'4 7.7
2017-Dec-09 23:00N 33°57' E 130°52'2 3.8
2017-Dec-09 22:30N 33°58' E 130°54'0 0.0
2017-Dec-09 22:00N 33°58' E 130°54'0 0.0
2017-Dec-09 21:30N 33°58' E 130°54'0 0.0
2017-Dec-09 21:01N 33°58' E 130°54'0 0.0
2017-Dec-09 20:30N 33°58' E 130°54'0 0.1
2017-Dec-09 20:00N 33°58' E 130°54'0 0.1
2017-Dec-09 19:30N 33°58' E 130°54'0 0.0
2017-Dec-09 19:00N 33°58' E 130°54'0 0.0
2017-Dec-09 18:30N 33°58' E 130°54'0 0.0
2017-Dec-09 18:01N 33°58' E 130°54'0 0.0
2017-Dec-09 17:31N 33°58' E 130°54'0 0.0
2017-Dec-09 17:00N 33°58' E 130°54'0 0.0
2017-Dec-09 16:30N 33°58' E 130°54'0 0.0
2017-Dec-09 16:01N 33°58' E 130°54'0 0.1
2017-Dec-09 15:30N 33°58' E 130°54'0 0.0
2017-Dec-09 15:00N 33°58' E 130°54'0 0.0
2017-Dec-09 14:31N 33°58' E 130°54'0 0.0
2017-Dec-09 14:00N 33°58' E 130°54'0 0.0
2017-Dec-09 13:30N 33°58' E 130°54'0 0.0
2017-Dec-09 13:00N 33°58' E 130°54'0 0.0
2017-Dec-09 12:31N 33°58' E 130°54'0 0.0
2017-Dec-09 12:00N 33°58' E 130°54'0 0.0
2017-Dec-09 11:30N 33°58' E 130°54'0 0.0
2017-Dec-09 11:00N 33°58' E 130°54'0 0.0
2017-Dec-09 10:30N 33°58' E 130°54'0 0.1
2017-Dec-09 10:01N 33°58' E 130°54'0 0.0
2017-Dec-09 09:31N 33°58' E 130°54'1 2.3
2017-Dec-09 08:58N 33°58' E 130°52'0 0.0
2017-Dec-09 08:28N 33°58' E 130°52'0 0.0
2017-Dec-09 07:58N 33°58' E 130°52'0 0.0
2017-Dec-09 07:28N 33°58' E 130°52'0 0.0
2017-Dec-09 06:58N 33°58' E 130°52'0 0.0
2017-Dec-09 06:28N 33°58' E 130°52'0 0.0
2017-Dec-09 06:00N 33°58' E 130°52'1 1.4
2017-Dec-09 05:30N 33°58' E 130°53'2 3.4
2017-Dec-09 05:00N 33°57' E 130°52'510.3
2017-Dec-09 04:30N 33°58' E 130°58'612.2
2017-Dec-09 04:00N 33°56' E 131°05'713.2
2017-Dec-09 03:30N 33°50' E 131°07'611.9
2017-Dec-09 03:00N 33°44' E 131°07'611.3
2017-Dec-09 02:30N 33°38' E 131°07'0 0.3
2017-Dec-09 01:55N 33°38' E 131°07'0 0.0
2017-Dec-09 01:25N 33°38' E 131°07'0 0.0
2017-Dec-09 00:49N 33°38' E 131°07'0 0.0
2017-Dec-09 00:25N 33°38' E 131°07'0 0.0
2017-Dec-08 23:55N 33°38' E 131°07'0 0.0
2017-Dec-08 23:29N 33°38' E 131°07'0 0.4
2017-Dec-08 23:01N 33°38' E 131°07'3 5.6
2017-Dec-08 22:31N 33°41' E 131°07'4 7.8
2017-Dec-08 22:00N 33°45' E 131°09'0 0.2
2017-Dec-08 21:29N 33°45' E 131°09'0 0.0
2017-Dec-08 20:59N 33°45' E 131°09'0 0.0
2017-Dec-08 20:29N 33°45' E 131°09'0 0.0
2017-Dec-08 19:59N 33°45' E 131°09'0 0.0
2017-Dec-08 19:29N 33°45' E 131°09'0 0.0
2017-Dec-08 18:59N 33°45' E 131°09'0 0.0
2017-Dec-08 18:29N 33°45' E 131°09'0 0.0
2017-Dec-08 17:59N 33°45' E 131°09'0 0.0
2017-Dec-08 17:29N 33°45' E 131°09'0 0.0
2017-Dec-08 16:53N 33°45' E 131°09'0 0.0
2017-Dec-08 16:29N 33°45' E 131°09'0 0.0
2017-Dec-08 15:56N 33°45' E 131°09'0 0.0
2017-Dec-08 15:29N 33°45' E 131°09'0 0.0
2017-Dec-08 14:56N 33°45' E 131°09'0 0.0
2017-Dec-08 14:20N 33°45' E 131°09'0 0.0
2017-Dec-08 13:59N 33°45' E 131°09'0 0.0
2017-Dec-08 13:26N 33°45' E 131°09'0 0.0
2017-Dec-08 12:59N 33°45' E 131°09'0 0.0
2017-Dec-08 12:26N 33°45' E 131°09'0 0.0
2017-Dec-08 11:56N 33°45' E 131°09'0 0.0
2017-Dec-08 11:26N 33°45' E 131°09'0 0.0
2017-Dec-08 10:59N 33°45' E 131°09'0 0.0
2017-Dec-08 10:29N 33°45' E 131°09'0 0.0
2017-Dec-08 09:56N 33°45' E 131°09'0 0.0
2017-Dec-08 09:26N 33°45' E 131°09'0 0.0
2017-Dec-08 08:59N 33°45' E 131°09'0 0.0
2017-Dec-08 08:26N 33°45' E 131°09'0 0.0
2017-Dec-08 07:59N 33°45' E 131°09'0 0.0
2017-Dec-08 07:29N 33°45' E 131°09'0 0.0
2017-Dec-08 06:59N 33°45' E 131°09'0 0.0
2017-Dec-08 06:26N 33°45' E 131°09'0 0.0
2017-Dec-08 05:59N 33°45' E 131°09'2 4.7
2017-Dec-08 05:31N 33°43' E 131°07'1 2.6
2017-Dec-08 04:58N 33°42' E 131°07'0 0.0
2017-Dec-08 04:28N 33°42' E 131°07'0 0.1
2017-Dec-08 03:58N 33°42' E 131°07'0 0.1
2017-Dec-08 03:29N 33°42' E 131°07'0 0.1
2017-Dec-08 02:58N 33°42' E 131°07'0 0.0
2017-Dec-08 02:28N 33°42' E 131°07'0 0.0
2017-Dec-08 01:59N 33°42' E 131°07'0 0.0
2017-Dec-08 01:28N 33°42' E 131°07'0 0.0
2017-Dec-08 00:59N 33°42' E 131°07'0 0.0
2017-Dec-08 00:28N 33°42' E 131°07'0 0.0
2017-Dec-07 23:58N 33°42' E 131°07'0 0.0
2017-Dec-07 23:28N 33°42' E 131°07'  
Track history (hours):
 
Tides and Currents Weather Stations Pressure Air Temp Water Temp Dewpoint Dewpoint Depression Visibility Wind Speed Wind Dir Waves Ship Positions

No.11 Kin Yu Maru

Last reported at 2017-Dec-17 23:00 UTC. Time now 2017-Dec-17 23:21 UTC.
Position N 33°51' E 131°25'.

Length 80 m; draft 5.3 m.

Type: Tanker. MMSI: 431003681.

Date/timePositionNaut miles runAvg speedWind from/ knotsBaromVisibWave heightAir tempDewpointWater temp
2017-Dec-17 23:00N 33°51' E 131°25'612.5
2017-Dec-17 22:30N 33°50' E 131°32'612.7
2017-Dec-17 22:00N 33°49' E 131°40'612.8
2017-Dec-17 21:30N 33°48' E 131°47'812.5
2017-Dec-17 20:52N 33°46' E 131°57'512.3
2017-Dec-17 20:29N 33°46' E 132°02'712.0
2017-Dec-17 19:53N 33°49' E 132°10'411.5
2017-Dec-17 19:30N 33°50' E 132°15'1111.8
2017-Dec-17 18:35N 33°52' E 132°28'212.3
2017-Dec-17 18:24N 33°52' E 132°31'512.8
2017-Dec-17 17:59N 33°55' E 132°37'613.7
2017-Dec-17 17:30N 33°58' E 132°43'9110.9
2017-Dec-17 09:10N 34°19' E 134°30'211.7
2017-Dec-17 08:59N 34°18' E 134°33'711.9
2017-Dec-17 08:26N 34°14' E 134°39'612.1
2017-Dec-17 07:55N 34°10' E 134°45'511.6
2017-Dec-17 07:30N 34°08' E 134°50'611.8
2017-Dec-17 07:00N 34°08' E 134°57'611.7
2017-Dec-17 06:30N 34°08' E 135°05'3 5.0
2017-Dec-17 06:00N 34°07' E 135°08'0 0.0
2017-Dec-17 00:59N 34°07' E 135°08'1 1.1
2017-Dec-17 00:30N 34°07' E 135°08'0 0.0
2017-Dec-16 23:57N 34°07' E 135°08'0 0.6
2017-Dec-16 23:30N 34°08' E 135°07'511.0
2017-Dec-16 23:00N 34°12' E 135°03'611.7
2017-Dec-16 22:30N 34°17' E 134°59'510.3
2017-Dec-16 22:01N 34°22' E 134°60'611.9
2017-Dec-16 21:30N 34°28' E 135°01'611.4
2017-Dec-16 21:01N 34°33' E 135°02'4 8.6
2017-Dec-16 20:31N 34°37' E 135°00'611.7
2017-Dec-16 20:01N 34°35' E 134°54'612.5
2017-Dec-16 19:30N 34°32' E 134°47'612.7
2017-Dec-16 19:00N 34°30' E 134°40'713.0
2017-Dec-16 18:30N 34°28' E 134°32'1712.8
2017-Dec-16 17:12N 34°24' E 134°12'7512.4
2017-Dec-16 11:09N 34°01' E 132°46'213.8
2017-Dec-16 11:00N 33°59' E 132°45'714.0
2017-Dec-16 10:29N 33°54' E 132°38'4012.6
2017-Dec-16 07:20N 33°44' E 131°52'413.1
2017-Dec-16 07:00N 33°45' E 131°47'713.1
2017-Dec-16 06:30N 33°46' E 131°39'613.0
2017-Dec-16 06:00N 33°47' E 131°32'713.4
2017-Dec-16 05:30N 33°49' E 131°24'713.5
2017-Dec-16 05:00N 33°50' E 131°16'713.7
2017-Dec-16 04:31N 33°53' E 131°08'713.7
2017-Dec-16 04:00N 33°58' E 131°02'611.1
2017-Dec-16 03:30N 33°55' E 130°56'2 4.4
2017-Dec-16 02:56N 33°54' E 130°54'0 0.0
2017-Dec-16 02:29N 33°54' E 130°54'0 0.0
2017-Dec-16 02:00N 33°54' E 130°54'0 0.0
2017-Dec-16 01:29N 33°54' E 130°54'0 0.0
2017-Dec-16 00:59N 33°54' E 130°54'0 0.0
2017-Dec-16 00:29N 33°54' E 130°54'0 0.0
2017-Dec-15 23:59N 33°54' E 130°54'0 0.0
2017-Dec-15 23:29N 33°54' E 130°54'1 1.7
2017-Dec-15 23:00N 33°54' E 130°54'1 1.5
2017-Dec-15 22:25N 33°54' E 130°53'0 0.0
2017-Dec-15 21:58N 33°54' E 130°53'0 0.0
2017-Dec-15 21:28N 33°54' E 130°53'0 0.0
2017-Dec-15 20:58N 33°54' E 130°53'0 0.0
2017-Dec-15 20:28N 33°54' E 130°53'0 0.0
2017-Dec-15 19:52N 33°54' E 130°53'0 0.0
2017-Dec-15 19:28N 33°54' E 130°53'0 0.0
2017-Dec-15 18:58N 33°54' E 130°53'0 0.0
2017-Dec-15 18:28N 33°54' E 130°53'0 0.0
2017-Dec-15 17:58N 33°54' E 130°53'0 0.0
2017-Dec-15 17:28N 33°54' E 130°53'0 0.0
2017-Dec-15 16:55N 33°54' E 130°53'0 0.0
2017-Dec-15 16:28N 33°54' E 130°53'0 0.0
2017-Dec-15 15:58N 33°54' E 130°53'0 0.0
2017-Dec-15 15:25N 33°54' E 130°53'0 0.0
2017-Dec-15 14:55N 33°54' E 130°53'0 0.0
2017-Dec-15 14:28N 33°54' E 130°53'0 0.0
2017-Dec-15 13:58N 33°54' E 130°53'0 0.0
2017-Dec-15 13:28N 33°54' E 130°53'0 0.0
2017-Dec-15 12:58N 33°54' E 130°53'0 0.0
2017-Dec-15 12:28N 33°54' E 130°53'0 0.0
2017-Dec-15 11:52N 33°54' E 130°53'0 0.0
2017-Dec-15 11:28N 33°54' E 130°53'0 0.0
2017-Dec-15 10:58N 33°54' E 130°53'0 0.0
2017-Dec-15 10:28N 33°54' E 130°53'0 0.0
2017-Dec-15 09:55N 33°54' E 130°53'0 0.0
2017-Dec-15 09:28N 33°54' E 130°53'0 0.0
2017-Dec-15 08:58N 33°54' E 130°53'0 0.0
2017-Dec-15 08:30N 33°54' E 130°53'2 4.9
2017-Dec-15 08:01N 33°55' E 130°56'611.1
2017-Dec-15 07:30N 33°59' E 131°00'612.1
2017-Dec-15 07:00N 33°56' E 131°06'612.5
2017-Dec-15 06:30N 33°52' E 131°12'612.1
2017-Dec-15 06:00N 33°50' E 131°19'611.7
2017-Dec-15 05:30N 33°49' E 131°26'611.7
2017-Dec-15 05:00N 33°48' E 131°33'611.4
2017-Dec-15 04:30N 33°47' E 131°40'611.3
2017-Dec-15 04:00N 33°45' E 131°47'2011.6
2017-Dec-15 02:15N 33°42' E 132°11'2012.8
2017-Dec-15 00:42N 33°50' E 132°33'312.6
2017-Dec-15 00:30N 33°52' E 132°35'10110.7
2017-Dec-14 15:00N 34°28' E 134°29'611.9
2017-Dec-14 14:30N 34°30' E 134°36'611.7
2017-Dec-14 14:00N 34°32' E 134°43'611.5
2017-Dec-14 13:30N 34°34' E 134°49'510.9
2017-Dec-14 13:00N 34°36' E 134°55'510.7
2017-Dec-14 12:30N 34°37' E 135°02'510.1
2017-Dec-14 12:00N 34°33' E 135°05'611.9
2017-Dec-14 11:30N 34°27' E 135°03'611.9
2017-Dec-14 11:00N 34°21' E 135°02'611.6
2017-Dec-14 10:30N 34°16' E 134°59'611.8
2017-Dec-14 10:00N 34°10' E 135°00'611.7
2017-Dec-14 09:30N 34°04' E 135°01'611.7
2017-Dec-14 09:00N 33°58' E 135°01'164 9.1
2017-Dec-13 15:00N 34°34' E 138°15'810.1
2017-Dec-13 14:11N 34°35' E 138°25'2 9.9
2017-Dec-13 13:58N 34°35' E 138°27'5 9.5
2017-Dec-13 13:26N 34°36' E 138°33'4 9.4
2017-Dec-13 13:00N 34°36' E 138°38'6 9.8
2017-Dec-13 12:22N 34°35' E 138°46'3 8.9
2017-Dec-13 12:00N 34°35' E 138°50'4 9.0
2017-Dec-13 11:30N 34°35' E 138°55'5 9.0
2017-Dec-13 10:55N 34°39' E 139°00'511.3
2017-Dec-13 10:28N 34°43' E 139°04'711.7
2017-Dec-13 09:55N 34°48' E 139°08'511.3
2017-Dec-13 09:26N 34°52' E 139°12'611.4
2017-Dec-13 08:55N 34°56' E 139°17'511.4
2017-Dec-13 08:30N 34°59' E 139°22'611.5
2017-Dec-13 08:00N 35°02' E 139°28'711.9
2017-Dec-13 07:24N 35°05' E 139°36'512.2
2017-Dec-13 06:57N 35°08' E 139°42'612.3
2017-Dec-13 06:29N 35°12' E 139°46'612.2
2017-Dec-13 06:01N 35°18' E 139°44'611.9
2017-Dec-13 05:31N 35°24' E 139°43'612.5
2017-Dec-13 05:00N 35°28' E 139°48'3 6.9
2017-Dec-13 04:30N 35°30' E 139°45'0 0.0
2017-Dec-13 03:27N 35°30' E 139°45'0 0.0
2017-Dec-13 03:00N 35°30' E 139°45'0 0.0
2017-Dec-13 02:24N 35°30' E 139°45'0 0.0
2017-Dec-13 01:54N 35°30' E 139°45'0 0.0
2017-Dec-13 01:30N 35°30' E 139°45'0 0.0
2017-Dec-13 01:00N 35°30' E 139°45'0 0.0
2017-Dec-13 00:30N 35°30' E 139°45'2 3.5
2017-Dec-13 00:00N 35°29' E 139°43'3 6.1
2017-Dec-12 23:30N 35°27' E 139°44'2 3.0
2017-Dec-12 23:00N 35°25' E 139°46'4 8.6
2017-Dec-12 22:30N 35°21' E 139°45'510.0
2017-Dec-12 22:00N 35°17' E 139°41'0 0.7
2017-Dec-12 21:29N 35°17' E 139°41'0 0.0
2017-Dec-12 20:59N 35°17' E 139°41'0 0.0
2017-Dec-12 20:26N 35°17' E 139°41'0 0.0
2017-Dec-12 19:59N 35°17' E 139°41'0 0.0
2017-Dec-12 19:29N 35°17' E 139°41'0 0.0
2017-Dec-12 18:53N 35°17' E 139°41'0 0.0
2017-Dec-12 18:29N 35°17' E 139°41'0 0.0
2017-Dec-12 17:53N 35°17' E 139°41'0 0.0
2017-Dec-12 17:29N 35°17' E 139°41'0 0.0
2017-Dec-12 16:56N 35°17' E 139°41'0 0.0
2017-Dec-12 16:29N 35°17' E 139°41'0 0.0
2017-Dec-12 15:59N 35°17' E 139°41'0 0.0
2017-Dec-12 15:29N 35°17' E 139°41'0 0.0
2017-Dec-12 14:56N 35°17' E 139°41'0 0.0
2017-Dec-12 14:14N 35°17' E 139°41'0 0.0
2017-Dec-12 13:59N 35°17' E 139°41'0 0.0
2017-Dec-12 13:26N 35°17' E 139°41'0 0.0
2017-Dec-12 12:59N 35°17' E 139°41'0 0.0
2017-Dec-12 12:26N 35°17' E 139°41'0 0.0
2017-Dec-12 11:59N 35°17' E 139°41'0 0.0
2017-Dec-12 11:29N 35°17' E 139°41'0 0.0
2017-Dec-12 10:56N 35°17' E 139°41'0 0.0
2017-Dec-12 10:29N 35°17' E 139°41'0 0.0
2017-Dec-12 09:56N 35°17' E 139°41'0 0.0
2017-Dec-12 09:29N 35°17' E 139°41'0 0.0
2017-Dec-12 08:59N 35°17' E 139°41'0 0.0
2017-Dec-12 08:27N 35°17' E 139°41'0 0.0
2017-Dec-12 07:59N 35°17' E 139°41'0 0.0
2017-Dec-12 07:23N 35°17' E 139°41'0 0.0
2017-Dec-12 06:56N 35°17' E 139°41'0 0.0
2017-Dec-12 06:29N 35°17' E 139°41'0 0.0
2017-Dec-12 05:56N 35°17' E 139°41'0 0.0
2017-Dec-12 05:26N 35°17' E 139°41'0 0.0
2017-Dec-12 04:47N 35°17' E 139°41'0 0.0
2017-Dec-12 03:56N 35°17' E 139°41'0 0.0
2017-Dec-12 03:26N 35°17' E 139°41'0 0.0
2017-Dec-12 02:56N 35°17' E 139°41'0 0.0
2017-Dec-12 02:29N 35°17' E 139°41'0 0.0
2017-Dec-12 01:35N 35°17' E 139°41'0 0.0
2017-Dec-12 01:20N 35°17' E 139°41'0 0.0
2017-Dec-12 00:59N 35°17' E 139°41'0 0.0
2017-Dec-12 00:20N 35°17' E 139°41'0 0.0
2017-Dec-11 23:50N 35°17' E 139°41'0 0.0
2017-Dec-11 23:23N 35°17' E 139°41'0 0.0
2017-Dec-11 22:56N 35°17' E 139°41'0 0.4
2017-Dec-11 22:31N 35°17' E 139°41'2 4.8
2017-Dec-11 22:01N 35°19' E 139°42'1 2.5
2017-Dec-11 21:30N 35°21' E 139°42'0 0.8
2017-Dec-11 21:00N 35°20' E 139°42'4 8.1
2017-Dec-11 20:31N 35°17' E 139°45'510.5
2017-Dec-11 20:00N 35°12' E 139°47'511.1
2017-Dec-11 19:30N 35°07' E 139°45'611.3
2017-Dec-11 18:59N 35°02' E 139°42'510.8
2017-Dec-11 18:30N 34°58' E 139°37'1314.3
2017-Dec-11 17:37N 34°52' E 139°24'215.5
2017-Dec-11 17:29N 34°51' E 139°22'714.4
2017-Dec-11 17:00N 34°46' E 139°16'813.9
2017-Dec-11 16:27N 34°42' E 139°08'713.7
2017-Dec-11 15:59N 34°38' E 139°02'613.2
2017-Dec-11 15:30N 34°35' E 138°55'813.4
2017-Dec-11 14:54N 34°34' E 138°45'512.9
2017-Dec-11 14:29N 34°33' E 138°39'2013.2
2017-Dec-11 12:56N 34°32' E 138°14'713.3
2017-Dec-11 12:23N 34°31' E 138°05'3313.2
2017-Dec-11 09:54N 34°30' E 137°25'613.6
2017-Dec-11 09:26N 34°30' E 137°18'27510.8
2017-Dec-10 07:55N 33°24' E 131°56'913.1
2017-Dec-10 07:16N 33°31' E 131°51'313.0
2017-Dec-10 07:00N 33°34' E 131°48'713.3
2017-Dec-10 06:30N 33°39' E 131°44'612.6
2017-Dec-10 06:01N 33°42' E 131°37'611.9
2017-Dec-10 05:30N 33°45' E 131°31'511.0
2017-Dec-10 05:01N 33°46' E 131°24'612.4
2017-Dec-10 04:31N 33°48' E 131°17'612.1
2017-Dec-10 04:00N 33°50' E 131°10'612.0
2017-Dec-10 03:31N 33°55' E 131°05'611.7
2017-Dec-10 03:01N 33°59' E 131°00'611.9
2017-Dec-10 02:30N 33°54' E 130°55'1 2.6
2017-Dec-10 02:00N 33°54' E 130°54'0 0.0
2017-Dec-10 01:30N 33°54' E 130°54'0 0.0
2017-Dec-10 01:00N 33°54' E 130°54'0 0.0
2017-Dec-10 00:28N 33°54' E 130°54'0 0.0
2017-Dec-09 23:58N 33°54' E 130°54'0 0.5
2017-Dec-09 23:30N 33°54' E 130°54'4 7.7
2017-Dec-09 23:00N 33°57' E 130°52'2 3.8
2017-Dec-09 22:30N 33°58' E 130°54'0 0.0
2017-Dec-09 22:00N 33°58' E 130°54'0 0.0
2017-Dec-09 21:30N 33°58' E 130°54'0 0.0
2017-Dec-09 21:01N 33°58' E 130°54'0 0.0
2017-Dec-09 20:30N 33°58' E 130°54'0 0.1
2017-Dec-09 20:00N 33°58' E 130°54'0 0.1
2017-Dec-09 19:30N 33°58' E 130°54'0 0.0
2017-Dec-09 19:00N 33°58' E 130°54'0 0.0
2017-Dec-09 18:30N 33°58' E 130°54'0 0.0
2017-Dec-09 18:01N 33°58' E 130°54'0 0.0
2017-Dec-09 17:31N 33°58' E 130°54'0 0.0
2017-Dec-09 17:00N 33°58' E 130°54'0 0.0
2017-Dec-09 16:30N 33°58' E 130°54'0 0.0
2017-Dec-09 16:01N 33°58' E 130°54'0 0.1
2017-Dec-09 15:30N 33°58' E 130°54'0 0.0
2017-Dec-09 15:00N 33°58' E 130°54'0 0.0
2017-Dec-09 14:31N 33°58' E 130°54'0 0.0
2017-Dec-09 14:00N 33°58' E 130°54'0 0.0
2017-Dec-09 13:30N 33°58' E 130°54'0 0.0
2017-Dec-09 13:00N 33°58' E 130°54'0 0.0
2017-Dec-09 12:31N 33°58' E 130°54'0 0.0
2017-Dec-09 12:00N 33°58' E 130°54'0 0.0
2017-Dec-09 11:30N 33°58' E 130°54'0 0.0
2017-Dec-09 11:00N 33°58' E 130°54'0 0.0
2017-Dec-09 10:30N 33°58' E 130°54'0 0.1
2017-Dec-09 10:01N 33°58' E 130°54'0 0.0
2017-Dec-09 09:31N 33°58' E 130°54'1 2.3
2017-Dec-09 08:58N 33°58' E 130°52'0 0.0
2017-Dec-09 08:28N 33°58' E 130°52'0 0.0
2017-Dec-09 07:58N 33°58' E 130°52'0 0.0
2017-Dec-09 07:28N 33°58' E 130°52'0 0.0
2017-Dec-09 06:58N 33°58' E 130°52'0 0.0
2017-Dec-09 06:28N 33°58' E 130°52'0 0.0
2017-Dec-09 06:00N 33°58' E 130°52'1 1.4
2017-Dec-09 05:30N 33°58' E 130°53'2 3.4
2017-Dec-09 05:00N 33°57' E 130°52'510.3
2017-Dec-09 04:30N 33°58' E 130°58'612.2
2017-Dec-09 04:00N 33°56' E 131°05'713.2
2017-Dec-09 03:30N 33°50' E 131°07'611.9
2017-Dec-09 03:00N 33°44' E 131°07'611.3
2017-Dec-09 02:30N 33°38' E 131°07'0 0.3
2017-Dec-09 01:55N 33°38' E 131°07'0 0.0
2017-Dec-09 01:25N 33°38' E 131°07'0 0.0
2017-Dec-09 00:49N 33°38' E 131°07'0 0.0
2017-Dec-09 00:25N 33°38' E 131°07'0 0.0
2017-Dec-08 23:55N 33°38' E 131°07'0 0.0
2017-Dec-08 23:29N 33°38' E 131°07'0 0.4
2017-Dec-08 23:01N 33°38' E 131°07'3 5.6
2017-Dec-08 22:31N 33°41' E 131°07'4 7.8
2017-Dec-08 22:00N 33°45' E 131°09'0 0.2
2017-Dec-08 21:29N 33°45' E 131°09'0 0.0
2017-Dec-08 20:59N 33°45' E 131°09'0 0.0
2017-Dec-08 20:29N 33°45' E 131°09'0 0.0
2017-Dec-08 19:59N 33°45' E 131°09'0 0.0
2017-Dec-08 19:29N 33°45' E 131°09'0 0.0
2017-Dec-08 18:59N 33°45' E 131°09'0 0.0
2017-Dec-08 18:29N 33°45' E 131°09'0 0.0
2017-Dec-08 17:59N 33°45' E 131°09'0 0.0
2017-Dec-08 17:29N 33°45' E 131°09'0 0.0
2017-Dec-08 16:53N 33°45' E 131°09'0 0.0
2017-Dec-08 16:29N 33°45' E 131°09'0 0.0
2017-Dec-08 15:56N 33°45' E 131°09'0 0.0
2017-Dec-08 15:29N 33°45' E 131°09'0 0.0
2017-Dec-08 14:56N 33°45' E 131°09'0 0.0
2017-Dec-08 14:20N 33°45' E 131°09'0 0.0
2017-Dec-08 13:59N 33°45' E 131°09'0 0.0
2017-Dec-08 13:26N 33°45' E 131°09'0 0.0
2017-Dec-08 12:59N 33°45' E 131°09'0 0.0
2017-Dec-08 12:26N 33°45' E 131°09'0 0.0
2017-Dec-08 11:56N 33°45' E 131°09'0 0.0
2017-Dec-08 11:26N 33°45' E 131°09'0 0.0
2017-Dec-08 10:59N 33°45' E 131°09'0 0.0
2017-Dec-08 10:29N 33°45' E 131°09'0 0.0
2017-Dec-08 09:56N 33°45' E 131°09'0 0.0
2017-Dec-08 09:26N 33°45' E 131°09'0 0.0
2017-Dec-08 08:59N 33°45' E 131°09'0 0.0
2017-Dec-08 08:26N 33°45' E 131°09'0 0.0
2017-Dec-08 07:59N 33°45' E 131°09'0 0.0
2017-Dec-08 07:29N 33°45' E 131°09'0 0.0
2017-Dec-08 06:59N 33°45' E 131°09'0 0.0
2017-Dec-08 06:26N 33°45' E 131°09'0 0.0
2017-Dec-08 05:59N 33°45' E 131°09'2 4.7
2017-Dec-08 05:31N 33°43' E 131°07'1 2.6
2017-Dec-08 04:58N 33°42' E 131°07'0 0.0
2017-Dec-08 04:28N 33°42' E 131°07'0 0.1
2017-Dec-08 03:58N 33°42' E 131°07'0 0.1
2017-Dec-08 03:29N 33°42' E 131°07'0 0.1
2017-Dec-08 02:58N 33°42' E 131°07'0 0.0
2017-Dec-08 02:28N 33°42' E 131°07'0 0.0
2017-Dec-08 01:59N 33°42' E 131°07'0 0.0
2017-Dec-08 01:28N 33°42' E 131°07'0 0.0
2017-Dec-08 00:59N 33°42' E 131°07'0 0.0
2017-Dec-08 00:28N 33°42' E 131°07'0 0.0
2017-Dec-07 23:58N 33°42' E 131°07'0 0.0
2017-Dec-07 23:28N 33°42' E 131°07'  

Dump ship's entire track history